sensor_id;sensor_type;location;lat;lon;timestamp;pressure;altitude;pressure_sealevel;temperature;humidity
61568;BME280;47462;59.172;17.196;2023-02-08T00:01:27;102836.66;;;2.78;84.48
61568;BME280;47462;59.172;17.196;2023-02-08T00:03:53;102846.91;;;2.77;84.52
61568;BME280;47462;59.172;17.196;2023-02-08T00:06:18;102844.28;;;2.75;84.72
61568;BME280;47462;59.172;17.196;2023-02-08T00:08:44;102844.09;;;2.71;84.30
61568;BME280;47462;59.172;17.196;2023-02-08T00:11:10;102795.91;;;2.45;84.24
61568;BME280;47462;59.172;17.196;2023-02-08T00:13:36;102845.88;;;2.72;84.53
61568;BME280;47462;59.172;17.196;2023-02-08T00:16:02;102834.56;;;2.68;84.74
61568;BME280;47462;59.172;17.196;2023-02-08T00:18:28;102842.72;;;2.79;84.18
61568;BME280;47462;59.172;17.196;2023-02-08T00:20:53;102829.53;;;2.71;84.36
61568;BME280;47462;59.172;17.196;2023-02-08T00:23:20;102834.75;;;2.73;84.35
61568;BME280;47462;59.172;17.196;2023-02-08T00:25:45;102799.94;;;2.61;84.63
61568;BME280;47462;59.172;17.196;2023-02-08T00:28:13;102799.22;;;2.65;84.54
61568;BME280;47462;59.172;17.196;2023-02-08T00:30:39;102835.31;;;2.88;84.79
61568;BME280;47462;59.172;17.196;2023-02-08T00:33:05;102834.88;;;2.76;84.85
61568;BME280;47462;59.172;17.196;2023-02-08T00:35:32;102834.69;;;2.71;84.58
61568;BME280;47462;59.172;17.196;2023-02-08T00:37:57;102837.56;;;2.79;84.56
61568;BME280;47462;59.172;17.196;2023-02-08T00:40:23;102830.75;;;2.81;84.82
61568;BME280;47462;59.172;17.196;2023-02-08T00:42:49;102837.78;;;2.85;85.02
61568;BME280;47462;59.172;17.196;2023-02-08T00:45:14;102833.31;;;2.81;85.23
61568;BME280;47462;59.172;17.196;2023-02-08T00:47:40;102786.81;;;2.55;85.11
61568;BME280;47462;59.172;17.196;2023-02-08T00:50:06;102819.34;;;2.74;84.83
61568;BME280;47462;59.172;17.196;2023-02-08T00:52:31;102821.25;;;2.80;84.86
61568;BME280;47462;59.172;17.196;2023-02-08T00:54:58;102783.47;;;2.58;84.94
61568;BME280;47462;59.172;17.196;2023-02-08T00:57:23;102817.16;;;2.85;84.78
61568;BME280;47462;59.172;17.196;2023-02-08T00:59:49;102823.25;;;2.87;84.92
61568;BME280;47462;59.172;17.196;2023-02-08T01:02:14;102819.00;;;2.89;84.73
61568;BME280;47462;59.172;17.196;2023-02-08T01:04:40;102804.78;;;2.76;84.97
61568;BME280;47462;59.172;17.196;2023-02-08T01:07:05;102812.69;;;2.81;84.77
61568;BME280;47462;59.172;17.196;2023-02-08T01:09:31;102816.47;;;2.91;84.95
61568;BME280;47462;59.172;17.196;2023-02-08T01:11:57;102788.56;;;2.79;84.94
61568;BME280;47462;59.172;17.196;2023-02-08T01:14:23;102835.72;;;2.99;85.10
61568;BME280;47462;59.172;17.196;2023-02-08T01:16:49;102740.19;;;2.49;84.94
61568;BME280;47462;59.172;17.196;2023-02-08T01:19:14;102819.47;;;3.01;84.62
61568;BME280;47462;59.172;17.196;2023-02-08T01:21:42;102802.03;;;2.94;85.03
61568;BME280;47462;59.172;17.196;2023-02-08T01:24:10;102788.16;;;2.92;85.08
61568;BME280;47462;59.172;17.196;2023-02-08T01:26:36;102791.59;;;2.91;84.76
61568;BME280;47462;59.172;17.196;2023-02-08T01:29:03;102808.44;;;3.06;84.74
61568;BME280;47462;59.172;17.196;2023-02-08T01:31:34;102765.34;;;2.79;84.89
61568;BME280;47462;59.172;17.196;2023-02-08T01:34:00;102800.31;;;2.95;84.73
61568;BME280;47462;59.172;17.196;2023-02-08T01:36:27;102799.44;;;2.94;84.95
61568;BME280;47462;59.172;17.196;2023-02-08T01:38:53;102776.66;;;2.82;84.90
61568;BME280;47462;59.172;17.196;2023-02-08T01:41:24;102594.91;;;1.76;84.77
61568;BME280;47462;59.172;17.196;2023-02-08T01:46:37;102799.50;;;2.96;84.78
61568;BME280;47462;59.172;17.196;2023-02-08T01:51:46;102790.16;;;2.99;85.03
61568;BME280;47462;59.172;17.196;2023-02-08T01:54:13;102708.56;;;2.53;84.98
61568;BME280;47462;59.172;17.196;2023-02-08T01:56:43;102786.44;;;2.91;84.87
61568;BME280;47462;59.172;17.196;2023-02-08T01:59:16;102797.25;;;3.05;84.94
61568;BME280;47462;59.172;17.196;2023-02-08T02:01:45;102812.84;;;3.08;84.85
61568;BME280;47462;59.172;17.196;2023-02-08T02:04:12;102812.78;;;3.07;85.19
61568;BME280;47462;59.172;17.196;2023-02-08T02:06:41;102812.78;;;3.07;84.79
61568;BME280;47462;59.172;17.196;2023-02-08T02:11:39;102756.38;;;2.69;85.14
61568;BME280;47462;59.172;17.196;2023-02-08T02:14:04;102789.94;;;2.93;85.14
61568;BME280;47462;59.172;17.196;2023-02-08T02:16:30;102813.72;;;3.09;84.86
61568;BME280;47462;59.172;17.196;2023-02-08T02:18:55;102818.88;;;3.09;85.24
61568;BME280;47462;59.172;17.196;2023-02-08T02:31:53;102808.38;;;3.04;85.25
61568;BME280;47462;59.172;17.196;2023-02-08T02:34:37;102805.91;;;3.07;85.86
61568;BME280;47462;59.172;17.196;2023-02-08T02:37:14;102792.78;;;3.01;85.82
61568;BME280;47462;59.172;17.196;2023-02-08T02:40:36;102817.16;;;3.09;86.02
61568;BME280;47462;59.172;17.196;2023-02-08T02:43:38;102787.59;;;2.99;85.72
61568;BME280;47462;59.172;17.196;2023-02-08T02:54:31;102830.00;;;3.08;86.28
61568;BME280;47462;59.172;17.196;2023-02-08T02:57:01;102835.31;;;3.12;86.18
61568;BME280;47462;59.172;17.196;2023-02-08T02:59:31;102791.53;;;2.90;86.12
61568;BME280;47462;59.172;17.196;2023-02-08T03:01:57;102834.63;;;3.16;86.11
61568;BME280;47462;59.172;17.196;2023-02-08T03:17:41;102802.31;;;3.28;85.98
61568;BME280;47462;59.172;17.196;2023-02-08T03:20:12;102750.03;;;3.08;86.05
61568;BME280;47462;59.172;17.196;2023-02-08T10:27:49;102893.03;;;5.88;78.91
61568;BME280;47462;59.172;17.196;2023-02-08T10:30:27;102890.81;;;5.70;79.77
61568;BME280;47462;59.172;17.196;2023-02-08T10:33:16;102886.09;;;5.56;80.60
61568;BME280;47462;59.172;17.196;2023-02-08T10:35:47;102764.81;;;4.75;80.93
61568;BME280;47462;59.172;17.196;2023-02-08T10:38:21;102870.41;;;5.49;80.86
61568;BME280;47462;59.172;17.196;2023-02-08T10:41:21;102871.25;;;5.48;80.90
61568;BME280;47462;59.172;17.196;2023-02-08T10:43:55;102873.88;;;5.50;81.60
61568;BME280;47462;59.172;17.196;2023-02-08T10:46:30;102871.25;;;5.48;81.26
61568;BME280;47462;59.172;17.196;2023-02-08T10:49:12;102860.91;;;5.48;81.41
61568;BME280;47462;59.172;17.196;2023-02-08T10:51:39;102818.69;;;5.21;80.76
61568;BME280;47462;59.172;17.196;2023-02-08T10:54:09;102853.75;;;5.40;81.37
61568;BME280;47462;59.172;17.196;2023-02-08T10:56:53;102872.97;;;5.49;81.33
61568;BME280;47462;59.172;17.196;2023-02-08T10:59:48;102873.81;;;5.47;81.46
61568;BME280;47462;59.172;17.196;2023-02-08T11:02:21;102807.16;;;5.09;81.52
61568;BME280;47462;59.172;17.196;2023-02-08T11:05:17;102858.19;;;5.44;81.44
61568;BME280;47462;59.172;17.196;2023-02-08T11:07:42;102821.50;;;5.28;81.36
61568;BME280;47462;59.172;17.196;2023-02-08T11:15:39;102841.03;;;5.49;81.34
61568;BME280;47462;59.172;17.196;2023-02-08T11:18:33;102858.72;;;5.64;81.17
61568;BME280;47462;59.172;17.196;2023-02-08T11:21:02;102861.22;;;5.61;81.27
61568;BME280;47462;59.172;17.196;2023-02-08T11:23:31;102840.06;;;5.44;81.28
61568;BME280;47462;59.172;17.196;2023-02-08T11:31:36;102826.16;;;5.42;81.44
61568;BME280;47462;59.172;17.196;2023-02-08T11:34:08;102835.03;;;5.50;81.25
61568;BME280;47462;59.172;17.196;2023-02-08T11:36:36;102749.91;;;4.97;81.31
61568;BME280;47462;59.172;17.196;2023-02-08T11:41:47;102836.78;;;5.51;81.51
61568;BME280;47462;59.172;17.196;2023-02-08T11:44:44;102830.88;;;5.57;81.36
61568;BME280;47462;59.172;17.196;2023-02-08T11:47:15;102826.81;;;5.66;80.72
61568;BME280;47462;59.172;17.196;2023-02-08T11:49:43;102826.09;;;5.72;80.47
61568;BME280;47462;59.172;17.196;2023-02-08T11:52:27;102780.53;;;5.45;80.16
61568;BME280;47462;59.172;17.196;2023-02-08T11:54:54;102822.69;;;5.73;80.29
61568;BME280;47462;59.172;17.196;2023-02-08T11:57:35;102824.25;;;5.68;80.47
61568;BME280;47462;59.172;17.196;2023-02-08T12:00:22;102821.94;;;5.79;80.07
61568;BME280;47462;59.172;17.196;2023-02-08T12:02:49;102812.59;;;5.84;80.03
61568;BME280;47462;59.172;17.196;2023-02-08T12:05:21;102781.72;;;5.58;80.19
61568;BME280;47462;59.172;17.196;2023-02-08T12:08:06;102803.75;;;5.77;79.97
61568;BME280;47462;59.172;17.196;2023-02-08T12:18:57;102799.56;;;5.81;79.83
61568;BME280;47462;59.172;17.196;2023-02-08T12:21:44;102795.88;;;5.72;80.03
61568;BME280;47462;59.172;17.196;2023-02-08T12:24:31;102803.69;;;5.74;80.18
61568;BME280;47462;59.172;17.196;2023-02-08T12:27:11;102788.72;;;5.62;79.94
61568;BME280;47462;59.172;17.196;2023-02-08T12:40:44;102800.28;;;5.75;80.21
61568;BME280;47462;59.172;17.196;2023-02-08T12:48:28;102802.78;;;5.72;80.38
61568;BME280;47462;59.172;17.196;2023-02-08T12:53:49;102747.53;;;5.38;80.70
61568;BME280;47462;59.172;17.196;2023-02-08T12:56:19;102764.91;;;5.42;80.81
61568;BME280;47462;59.172;17.196;2023-02-08T12:58:50;102787.91;;;5.65;81.04
61568;BME280;47462;59.172;17.196;2023-02-08T13:01:19;102787.13;;;5.67;80.58
61568;BME280;47462;59.172;17.196;2023-02-08T13:04:18;102772.38;;;5.65;80.64
61568;BME280;47462;59.172;17.196;2023-02-08T13:06:52;102784.50;;;5.66;80.73
61568;BME280;47462;59.172;17.196;2023-02-08T13:14:44;102768.09;;;5.65;80.74
61568;BME280;47462;59.172;17.196;2023-02-08T13:17:26;102758.50;;;5.63;81.02
61568;BME280;47462;59.172;17.196;2023-02-08T13:20:03;102768.13;;;5.67;81.15
61568;BME280;47462;59.172;17.196;2023-02-08T14:16:35;102672.44;;;5.38;81.27
61568;BME280;47462;59.172;17.196;2023-02-08T14:19:05;102679.44;;;5.41;81.08
61568;BME280;47462;59.172;17.196;2023-02-08T14:21:47;102662.63;;;5.25;81.19
61568;BME280;47462;59.172;17.196;2023-02-08T14:24:36;102665.28;;;5.28;80.81
61568;BME280;47462;59.172;17.196;2023-02-08T14:27:24;102676.63;;;5.31;80.65
61568;BME280;47462;59.172;17.196;2023-02-08T14:32:45;102668.94;;;5.34;80.62
61568;BME280;47462;59.172;17.196;2023-02-08T14:37:37;102660.56;;;5.11;80.76
61568;BME280;47462;59.172;17.196;2023-02-08T14:42:55;102675.53;;;5.23;80.62
61568;BME280;47462;59.172;17.196;2023-02-08T14:45:35;102609.88;;;4.85;80.45
61568;BME280;47462;59.172;17.196;2023-02-08T14:51:35;102649.19;;;5.05;80.61
61568;BME280;47462;59.172;17.196;2023-02-08T14:58:40;102655.03;;;4.97;80.88
61568;BME280;47462;59.172;17.196;2023-02-08T15:03:58;102644.31;;;4.83;80.94
61568;BME280;47462;59.172;17.196;2023-02-08T15:09:15;102658.34;;;4.92;80.76
61568;BME280;47462;59.172;17.196;2023-02-08T15:11:48;102660.75;;;4.84;80.77
61568;BME280;47462;59.172;17.196;2023-02-08T15:14:17;102645.69;;;4.69;80.99
61568;BME280;47462;59.172;17.196;2023-02-08T15:16:43;102625.41;;;4.53;81.37
61568;BME280;47462;59.172;17.196;2023-02-08T15:19:20;102655.16;;;4.69;81.32
61568;BME280;47462;59.172;17.196;2023-02-08T15:21:46;102654.25;;;4.68;81.22
61568;BME280;47462;59.172;17.196;2023-02-08T15:24:15;102661.03;;;4.63;81.84
61568;BME280;47462;59.172;17.196;2023-02-08T15:26:51;102650.69;;;4.63;81.55
61568;BME280;47462;59.172;17.196;2023-02-08T15:29:23;102656.59;;;4.59;81.34
61568;BME280;47462;59.172;17.196;2023-02-08T15:31:49;102659.34;;;4.65;81.85
61568;BME280;47462;59.172;17.196;2023-02-08T15:34:16;102649.66;;;4.58;81.36
61568;BME280;47462;59.172;17.196;2023-02-08T15:36:51;102638.41;;;4.56;81.31
61568;BME280;47462;59.172;17.196;2023-02-08T15:39:29;102651.47;;;4.60;81.40
61568;BME280;47462;59.172;17.196;2023-02-08T15:41:57;102637.41;;;4.51;81.35
61568;BME280;47462;59.172;17.196;2023-02-08T15:44:26;102670.47;;;4.61;81.41
61568;BME280;47462;59.172;17.196;2023-02-08T15:46:56;102662.59;;;4.58;81.35
61568;BME280;47462;59.172;17.196;2023-02-08T15:49:31;102660.13;;;4.61;81.53
61568;BME280;47462;59.172;17.196;2023-02-08T15:51:57;102663.44;;;4.57;81.34
61568;BME280;47462;59.172;17.196;2023-02-08T15:54:23;102597.94;;;4.24;81.29
61568;BME280;47462;59.172;17.196;2023-02-08T15:59:29;102642.75;;;4.57;80.89
61568;BME280;47462;59.172;17.196;2023-02-08T16:01:57;102623.47;;;4.45;81.41
61568;BME280;47462;59.172;17.196;2023-02-08T16:04:27;102647.97;;;4.58;81.25
61568;BME280;47462;59.172;17.196;2023-02-08T16:06:54;102648.88;;;4.60;81.31
61568;BME280;47462;59.172;17.196;2023-02-08T16:09:26;102632.41;;;4.57;80.90
61568;BME280;47462;59.172;17.196;2023-02-08T16:11:56;102635.03;;;4.58;80.93
61568;BME280;47462;59.172;17.196;2023-02-08T16:14:23;102575.38;;;4.19;80.68
61568;BME280;47462;59.172;17.196;2023-02-08T16:16:54;102612.97;;;4.39;81.42
61568;BME280;47462;59.172;17.196;2023-02-08T16:19:25;102627.09;;;4.51;80.98
61568;BME280;47462;59.172;17.196;2023-02-08T16:21:52;102620.09;;;4.48;81.38
61568;BME280;47462;59.172;17.196;2023-02-08T16:24:20;102581.56;;;4.25;81.39
61568;BME280;47462;59.172;17.196;2023-02-08T16:27:05;102601.03;;;4.43;81.20
61568;BME280;47462;59.172;17.196;2023-02-08T16:29:38;102600.13;;;4.42;81.41
61568;BME280;47462;59.172;17.196;2023-02-08T16:32:25;102601.72;;;4.37;81.00
61568;BME280;47462;59.172;17.196;2023-02-08T16:34:52;102581.72;;;4.32;81.13
61568;BME280;47462;59.172;17.196;2023-02-08T16:37:29;102578.16;;;4.26;81.08
61568;BME280;47462;59.172;17.196;2023-02-08T16:39:55;102595.84;;;4.43;81.15
61568;BME280;47462;59.172;17.196;2023-02-08T16:45:20;102581.19;;;4.43;80.75
61568;BME280;47462;59.172;17.196;2023-02-08T16:50:17;102564.47;;;4.29;80.76
61568;BME280;47462;59.172;17.196;2023-02-08T16:52:43;102485.66;;;3.83;81.05
61568;BME280;47462;59.172;17.196;2023-02-08T16:55:23;102556.75;;;4.31;81.58
61568;BME280;47462;59.172;17.196;2023-02-08T16:57:54;102556.75;;;4.31;81.24
61568;BME280;47462;59.172;17.196;2023-02-08T17:00:26;102536.44;;;4.13;81.27
61568;BME280;47462;59.172;17.196;2023-02-08T17:02:54;102550.44;;;4.21;81.27
61568;BME280;47462;59.172;17.196;2023-02-08T17:05:22;102558.25;;;4.24;81.74
61568;BME280;47462;59.172;17.196;2023-02-08T17:07:48;102571.31;;;4.28;81.71
61568;BME280;47462;59.172;17.196;2023-02-08T17:10:40;102555.69;;;4.24;81.53
61568;BME280;47462;59.172;17.196;2023-02-08T17:13:08;102555.63;;;4.22;81.73
61568;BME280;47462;59.172;17.196;2023-02-08T17:15:34;102558.31;;;4.25;81.51
61568;BME280;47462;59.172;17.196;2023-02-08T17:17:59;102561.78;;;4.26;81.53
61568;BME280;47462;59.172;17.196;2023-02-08T17:20:33;102545.13;;;4.16;81.38
61568;BME280;47462;59.172;17.196;2023-02-08T17:23:02;102556.50;;;4.21;81.49
61568;BME280;47462;59.172;17.196;2023-02-08T17:25:28;102555.59;;;4.21;81.60
61568;BME280;47462;59.172;17.196;2023-02-08T17:27:59;102545.31;;;4.22;81.55
61568;BME280;47462;59.172;17.196;2023-02-08T17:30:30;102534.09;;;4.22;81.38
61568;BME280;47462;59.172;17.196;2023-02-08T17:32:57;102540.88;;;4.17;81.37
61568;BME280;47462;59.172;17.196;2023-02-08T17:35:24;102509.56;;;4.06;81.58
61568;BME280;47462;59.172;17.196;2023-02-08T17:37:51;102537.38;;;4.16;81.30
61568;BME280;47462;59.172;17.196;2023-02-08T17:40:18;102537.34;;;4.15;81.88
61568;BME280;47462;59.172;17.196;2023-02-08T17:42:43;102533.78;;;4.09;81.68
61568;BME280;47462;59.172;17.196;2023-02-08T17:45:10;102525.03;;;4.04;81.78
61568;BME280;47462;59.172;17.196;2023-02-08T17:47:36;102525.03;;;4.04;81.50
61568;BME280;47462;59.172;17.196;2023-02-08T17:50:06;102476.25;;;3.85;81.89
61568;BME280;47462;59.172;17.196;2023-02-08T17:52:33;102503.50;;;4.05;81.41
61568;BME280;47462;59.172;17.196;2023-02-08T17:54:59;102494.75;;;4.00;81.50
61568;BME280;47462;59.172;17.196;2023-02-08T17:57:25;102510.47;;;4.08;81.25
61568;BME280;47462;59.172;17.196;2023-02-08T17:59:51;102513.84;;;4.05;81.56
61568;BME280;47462;59.172;17.196;2023-02-08T18:02:18;102463.19;;;3.79;81.44
61568;BME280;47462;59.172;17.196;2023-02-08T18:04:44;102498.25;;;4.02;81.64
61568;BME280;47462;59.172;17.196;2023-02-08T18:07:09;102485.25;;;3.99;81.29
61568;BME280;47462;59.172;17.196;2023-02-08T18:09:34;102494.84;;;4.03;81.39
61568;BME280;47462;59.172;17.196;2023-02-08T18:12:00;102484.44;;;4.00;80.98
61568;BME280;47462;59.172;17.196;2023-02-08T18:14:25;102485.94;;;3.93;81.00
61568;BME280;47462;59.172;17.196;2023-02-08T18:16:51;102489.63;;;4.02;81.26
61568;BME280;47462;59.172;17.196;2023-02-08T18:19:16;102475.41;;;3.86;80.80
61568;BME280;47462;59.172;17.196;2023-02-08T18:21:43;102478.00;;;3.86;81.07
61568;BME280;47462;59.172;17.196;2023-02-08T18:24:08;102489.38;;;3.92;80.97
61568;BME280;47462;59.172;17.196;2023-02-08T18:26:34;102484.00;;;3.85;80.90
61568;BME280;47462;59.172;17.196;2023-02-08T18:29:00;102484.06;;;3.86;81.35
61568;BME280;47462;59.172;17.196;2023-02-08T18:31:27;102493.63;;;3.90;80.96
61568;BME280;47462;59.172;17.196;2023-02-08T18:33:54;102362.63;;;3.21;80.68
61568;BME280;47462;59.172;17.196;2023-02-08T18:36:21;102458.84;;;3.78;80.65
61568;BME280;47462;59.172;17.196;2023-02-08T18:38:48;102435.31;;;3.67;81.10
61568;BME280;47462;59.172;17.196;2023-02-08T18:41:20;102476.09;;;3.79;81.11
61568;BME280;47462;59.172;17.196;2023-02-08T18:43:47;102475.19;;;3.78;81.39
61568;BME280;47462;59.172;17.196;2023-02-08T18:46:15;102464.00;;;3.78;81.35
61568;BME280;47462;59.172;17.196;2023-02-08T18:48:42;102455.44;;;3.79;81.41
61568;BME280;47462;59.172;17.196;2023-02-08T18:51:10;102460.50;;;3.75;81.13
61568;BME280;47462;59.172;17.196;2023-02-08T18:53:38;102447.72;;;3.80;81.21
61568;BME280;47462;59.172;17.196;2023-02-08T18:56:06;102442.47;;;3.77;80.79
61568;BME280;47462;59.172;17.196;2023-02-08T18:58:32;102407.38;;;3.53;80.65
61568;BME280;47462;59.172;17.196;2023-02-08T19:01:09;102427.38;;;3.61;81.05
61568;BME280;47462;59.172;17.196;2023-02-08T19:03:34;102443.00;;;3.65;81.34
61568;BME280;47462;59.172;17.196;2023-02-08T19:06:09;102432.56;;;3.61;81.14
61568;BME280;47462;59.172;17.196;2023-02-08T19:08:35;102439.44;;;3.60;81.10
61568;BME280;47462;59.172;17.196;2023-02-08T19:11:05;102408.94;;;3.47;80.85
61568;BME280;47462;59.172;17.196;2023-02-08T19:13:37;102419.00;;;3.37;80.88
61568;BME280;47462;59.172;17.196;2023-02-08T19:16:04;102413.94;;;3.41;81.21
61568;BME280;47462;59.172;17.196;2023-02-08T19:18:30;102427.03;;;3.48;81.34
61568;BME280;47462;59.172;17.196;2023-02-08T19:21:07;102417.59;;;3.49;81.24
61568;BME280;47462;59.172;17.196;2023-02-08T19:23:33;102379.94;;;3.25;80.97
61568;BME280;47462;59.172;17.196;2023-02-08T19:26:09;102409.75;;;3.46;80.76
61568;BME280;47462;59.172;17.196;2023-02-08T19:28:36;102368.06;;;3.32;80.79
61568;BME280;47462;59.172;17.196;2023-02-08T19:31:07;102399.31;;;3.41;80.61
61568;BME280;47462;59.172;17.196;2023-02-08T19:33:40;102396.75;;;3.43;80.71
61568;BME280;47462;59.172;17.196;2023-02-08T19:36:13;102356.81;;;3.28;80.57
61568;BME280;47462;59.172;17.196;2023-02-08T19:38:40;102389.91;;;3.43;80.44
61568;BME280;47462;59.172;17.196;2023-02-08T19:41:08;102393.19;;;3.37;80.45
61568;BME280;47462;59.172;17.196;2023-02-08T19:43:34;102382.69;;;3.31;80.45
61568;BME280;47462;59.172;17.196;2023-02-08T19:46:00;102370.63;;;3.30;80.46
61568;BME280;47462;59.172;17.196;2023-02-08T19:48:26;102394.00;;;3.36;80.35
61568;BME280;47462;59.172;17.196;2023-02-08T19:50:57;102372.81;;;3.16;80.41
61568;BME280;47462;59.172;17.196;2023-02-08T19:53:24;102373.63;;;3.15;80.35
61568;BME280;47462;59.172;17.196;2023-02-08T19:56:04;102322.16;;;2.88;79.65
61568;BME280;47462;59.172;17.196;2023-02-08T19:58:30;102341.19;;;2.93;79.32
61568;BME280;47462;59.172;17.196;2023-02-08T20:00:56;102371.63;;;3.05;79.80
61568;BME280;47462;59.172;17.196;2023-02-08T20:03:22;102354.09;;;2.93;79.16
61568;BME280;47462;59.172;17.196;2023-02-08T20:05:49;102355.19;;;3.01;79.14
61568;BME280;47462;59.172;17.196;2023-02-08T20:08:14;102265.53;;;2.34;78.80
61568;BME280;47462;59.172;17.196;2023-02-08T20:10:45;102322.59;;;2.75;78.77
61568;BME280;47462;59.172;17.196;2023-02-08T20:13:12;102350.66;;;2.93;78.44
61568;BME280;47462;59.172;17.196;2023-02-08T20:15:39;102319.84;;;2.68;78.41
61568;BME280;47462;59.172;17.196;2023-02-08T20:18:07;102340.94;;;2.84;78.74
61568;BME280;47462;59.172;17.196;2023-02-08T20:20:33;102338.25;;;2.81;78.34
61568;BME280;47462;59.172;17.196;2023-02-08T20:22:59;102342.03;;;2.63;78.21
61568;BME280;47462;59.172;17.196;2023-02-08T20:25:26;102332.22;;;2.52;77.82
61568;BME280;47462;59.172;17.196;2023-02-08T20:27:52;102298.88;;;2.29;78.06
61568;BME280;47462;59.172;17.196;2023-02-08T20:30:17;102317.94;;;2.34;78.32
61568;BME280;47462;59.172;17.196;2023-02-08T20:32:44;102316.28;;;2.36;77.98
61568;BME280;47462;59.172;17.196;2023-02-08T20:35:11;102298.84;;;2.27;78.23
61568;BME280;47462;59.172;17.196;2023-02-08T20:37:42;102298.50;;;2.17;77.71
61568;BME280;47462;59.172;17.196;2023-02-08T20:40:09;102318.63;;;2.28;78.17
61568;BME280;47462;59.172;17.196;2023-02-08T20:42:35;102317.53;;;2.22;77.79
61568;BME280;47462;59.172;17.196;2023-02-08T20:45:01;102297.53;;;2.13;78.10
61568;BME280;47462;59.172;17.196;2023-02-08T20:47:27;102317.00;;;2.05;77.95
61568;BME280;47462;59.172;17.196;2023-02-08T20:49:52;102313.63;;;2.06;78.11
61568;BME280;47462;59.172;17.196;2023-02-08T20:52:18;102296.63;;;1.85;78.26
61568;BME280;47462;59.172;17.196;2023-02-08T20:54:44;102303.84;;;1.95;78.11
61568;BME280;47462;59.172;17.196;2023-02-08T20:57:11;102296.63;;;1.85;78.38
61568;BME280;47462;59.172;17.196;2023-02-08T20:59:38;102280.22;;;1.82;78.05
61568;BME280;47462;59.172;17.196;2023-02-08T21:02:04;102270.47;;;1.73;78.33
61568;BME280;47462;59.172;17.196;2023-02-08T21:04:33;102159.22;;;1.01;78.29
61568;BME280;47462;59.172;17.196;2023-02-08T21:06:59;102280.94;;;1.77;78.63
61568;BME280;47462;59.172;17.196;2023-02-08T21:09:25;102268.75;;;1.72;78.41
61568;BME280;47462;59.172;17.196;2023-02-08T21:11:51;102247.63;;;1.55;78.18
61568;BME280;47462;59.172;17.196;2023-02-08T21:14:19;102267.56;;;1.62;78.31
61568;BME280;47462;59.172;17.196;2023-02-08T21:16:47;102281.38;;;1.64;78.91
61568;BME280;47462;59.172;17.196;2023-02-08T21:19:14;102255.88;;;1.46;78.36
61568;BME280;47462;59.172;17.196;2023-02-08T21:21:40;102263.91;;;1.55;78.68
61568;BME280;47462;59.172;17.196;2023-02-08T21:24:06;102251.56;;;1.45;78.57
61568;BME280;47462;59.172;17.196;2023-02-08T21:26:31;102239.81;;;1.28;78.67
61568;BME280;47462;59.172;17.196;2023-02-08T21:28:57;102236.31;;;1.25;78.63
61568;BME280;47462;59.172;17.196;2023-02-08T21:31:23;102241.91;;;1.38;78.83
61568;BME280;47462;59.172;17.196;2023-02-08T21:33:49;102225.69;;;1.40;78.41
61568;BME280;47462;59.172;17.196;2023-02-08T21:36:19;102215.84;;;1.29;78.47
61568;BME280;47462;59.172;17.196;2023-02-08T21:38:45;102194.75;;;1.13;78.05
61568;BME280;47462;59.172;17.196;2023-02-08T21:41:31;102224.91;;;1.17;78.30
61568;BME280;47462;59.172;17.196;2023-02-08T21:43:59;102206.78;;;1.14;78.30
61568;BME280;47462;59.172;17.196;2023-02-08T21:46:26;102231.97;;;1.23;77.80
61568;BME280;47462;59.172;17.196;2023-02-08T21:48:52;102224.03;;;1.17;77.97
61568;BME280;47462;59.172;17.196;2023-02-08T21:51:37;102222.97;;;1.12;78.12
61568;BME280;47462;59.172;17.196;2023-02-08T21:54:24;102176.69;;;0.86;77.75
61568;BME280;47462;59.172;17.196;2023-02-08T21:57:24;102215.91;;;1.04;77.70
61568;BME280;47462;59.172;17.196;2023-02-08T21:59:52;102201.13;;;0.99;77.84
61568;BME280;47462;59.172;17.196;2023-02-08T22:02:23;102195.38;;;1.06;77.88
61568;BME280;47462;59.172;17.196;2023-02-08T22:04:51;102203.91;;;1.05;77.48
61568;BME280;47462;59.172;17.196;2023-02-08T22:07:44;102204.50;;;0.98;77.58
61568;BME280;47462;59.172;17.196;2023-02-08T22:10:11;102187.34;;;0.97;77.30
61568;BME280;47462;59.172;17.196;2023-02-08T22:12:37;102170.16;;;0.96;77.42
61568;BME280;47462;59.172;17.196;2023-02-08T22:15:06;102117.81;;;0.68;76.84
61568;BME280;47462;59.172;17.196;2023-02-08T22:17:32;102154.75;;;0.96;77.10
61568;BME280;47462;59.172;17.196;2023-02-08T22:19:57;102141.59;;;0.86;77.27
61568;BME280;47462;59.172;17.196;2023-02-08T22:22:23;102148.75;;;0.95;76.59
61568;BME280;47462;59.172;17.196;2023-02-08T22:24:48;102148.00;;;0.99;76.64
61568;BME280;47462;59.172;17.196;2023-02-08T22:27:13;102147.84;;;0.95;76.47
61568;BME280;47462;59.172;17.196;2023-02-08T22:29:39;102113.81;;;0.76;76.35
61568;BME280;47462;59.172;17.196;2023-02-08T22:32:04;102099.19;;;0.74;76.30
61568;BME280;47462;59.172;17.196;2023-02-08T22:34:31;102137.56;;;0.95;75.58
61568;BME280;47462;59.172;17.196;2023-02-08T22:36:56;102119.63;;;0.96;75.54
61568;BME280;47462;59.172;17.196;2023-02-08T22:39:22;102105.75;;;0.91;75.16
61568;BME280;47462;59.172;17.196;2023-02-08T22:41:47;102099.69;;;0.89;75.30
61568;BME280;47462;59.172;17.196;2023-02-08T22:44:13;102103.22;;;0.93;75.29
61568;BME280;47462;59.172;17.196;2023-02-08T22:46:39;102109.97;;;0.89;74.96
61568;BME280;47462;59.172;17.196;2023-02-08T22:49:04;102078.88;;;0.81;74.31
61568;BME280;47462;59.172;17.196;2023-02-08T22:51:29;102085.00;;;0.85;74.35
61568;BME280;47462;59.172;17.196;2023-02-08T22:53:56;102084.31;;;0.91;74.45
61568;BME280;47462;59.172;17.196;2023-02-08T22:56:22;102038.13;;;0.66;74.53
61568;BME280;47462;59.172;17.196;2023-02-08T22:58:48;102065.94;;;0.78;74.87
61568;BME280;47462;59.172;17.196;2023-02-08T23:01:15;102063.56;;;0.84;74.91